createdAt,value
2023-03-24T00:00:46.815Z,1.40
2023-03-24T00:03:17.393Z,1.70
2023-03-24T00:05:50.418Z,1.60
2023-03-24T00:08:17.997Z,1.40
2023-03-24T00:10:47.711Z,1.30
2023-03-24T00:13:16.228Z,1.50
2023-03-24T00:15:45.383Z,1.50
2023-03-24T00:18:13.034Z,1.40
2023-03-24T00:20:42.186Z,1.50
2023-03-24T00:23:11.104Z,1.30
2023-03-24T00:25:40.149Z,1.30
2023-03-24T00:28:10.062Z,1.40
2023-03-24T00:30:37.754Z,1.20
2023-03-24T00:33:05.523Z,1.30
2023-03-24T00:35:33.141Z,1.20
2023-03-24T00:38:00.764Z,1.30
2023-03-24T00:40:29.711Z,1.93
2023-03-24T00:42:59.146Z,1.80
2023-03-24T00:45:26.766Z,1.27
2023-03-24T00:47:54.771Z,1.87
2023-03-24T00:50:26.504Z,1.93
2023-03-24T00:52:58.223Z,1.90
2023-03-24T00:55:28.454Z,2.00
2023-03-24T00:57:57.571Z,1.60
2023-03-24T01:00:27.937Z,1.70
2023-03-24T01:02:57.550Z,1.77
2023-03-24T01:05:27.988Z,1.90
2023-03-24T01:07:57.263Z,1.70
2023-03-24T01:10:27.064Z,1.50
2023-03-24T01:12:59.080Z,1.90
2023-03-24T01:15:33.312Z,1.67
2023-03-24T01:18:02.183Z,1.30
2023-03-24T01:20:32.936Z,1.53
2023-03-24T01:23:00.737Z,1.70
2023-03-24T01:25:29.259Z,1.80
2023-03-24T01:27:58.425Z,1.83
2023-03-24T01:30:28.352Z,1.80
2023-03-24T01:32:56.957Z,1.57
2023-03-24T01:35:28.533Z,1.77
2023-03-24T01:37:58.910Z,1.93
2023-03-24T01:40:29.813Z,2.10
2023-03-24T01:42:59.255Z,2.00
2023-03-24T01:45:56.700Z,1.97
2023-03-24T01:48:29.498Z,1.80
2023-03-24T01:51:02.524Z,2.00
2023-03-24T01:53:33.256Z,2.10
2023-03-24T01:56:03.063Z,2.20
2023-03-24T01:58:39.589Z,2.10
2023-03-24T02:01:17.651Z,2.07
2023-03-24T02:04:04.305Z,2.07
2023-03-24T02:06:34.182Z,2.60
2023-03-24T02:09:03.787Z,2.50
2023-03-24T02:11:34.725Z,2.30
2023-03-24T02:14:08.734Z,2.60
2023-03-24T02:16:53.697Z,2.53
2023-03-24T02:20:02.761Z,2.30
2023-03-24T02:22:59.092Z,2.40
2023-03-24T02:25:55.776Z,2.50
2023-03-24T02:28:35.097Z,2.20
2023-03-24T02:31:29.091Z,2.40
2023-03-24T02:34:30.950Z,2.37
2023-03-24T02:37:29.855Z,2.27
2023-03-24T02:40:23.604Z,2.17
2023-03-24T02:43:11.641Z,2.07
2023-03-24T02:45:46.526Z,2.40
2023-03-24T02:48:23.593Z,2.27
2023-03-24T02:51:00.031Z,2.77
2023-03-24T02:53:34.164Z,2.50
2023-03-24T02:56:27.375Z,2.50
2023-03-24T02:59:03.995Z,2.30
2023-03-24T03:01:41.329Z,2.30
2023-03-24T03:04:26.418Z,2.33
2023-03-24T03:06:59.877Z,2.30
2023-03-24T03:09:29.927Z,2.70
2023-03-24T03:12:01.759Z,2.43
2023-03-24T03:14:34.034Z,2.77
2023-03-24T03:17:06.955Z,2.60
2023-03-24T03:19:41.074Z,2.83
2023-03-24T03:22:14.142Z,2.60
2023-03-24T03:24:44.885Z,2.60
2023-03-24T03:27:19.050Z,2.50
2023-03-24T03:29:54.298Z,2.50
2023-03-24T03:32:28.340Z,2.57
2023-03-24T03:35:01.501Z,2.60
2023-03-24T03:37:35.550Z,2.80
2023-03-24T03:40:09.148Z,2.50
2023-03-24T03:42:40.551Z,2.47
2023-03-24T03:45:10.033Z,2.77
2023-03-24T03:47:39.374Z,2.57
2023-03-24T03:50:09.840Z,2.73
2023-03-24T03:52:41.564Z,2.67
2023-03-24T03:55:11.518Z,2.90
2023-03-24T03:57:42.160Z,3.20
2023-03-24T04:00:17.314Z,2.63
2023-03-24T04:03:34.461Z,2.67
2023-03-24T04:06:08.959Z,2.83
2023-03-24T04:08:48.956Z,2.80
2023-03-24T04:11:55.989Z,2.90
2023-03-24T04:15:04.035Z,2.90
2023-03-24T04:17:48.224Z,2.60
2023-03-24T04:20:38.280Z,2.90
2023-03-24T04:23:18.347Z,2.97
2023-03-24T04:25:58.573Z,2.80
2023-03-24T04:28:34.660Z,2.73
2023-03-24T04:31:08.272Z,3.27
2023-03-24T04:33:43.822Z,2.60
2023-03-24T04:36:19.126Z,2.80
2023-03-24T04:39:13.160Z,2.90
2023-03-24T04:41:48.378Z,2.73
2023-03-24T04:44:25.667Z,2.93
2023-03-24T04:47:15.459Z,2.93
2023-03-24T04:50:01.857Z,2.87
2023-03-24T04:52:30.835Z,3.40
2023-03-24T04:54:59.649Z,2.90
2023-03-24T04:57:27.605Z,3.27
2023-03-24T05:00:08.619Z,2.97
2023-03-24T05:02:38.427Z,3.13
2023-03-24T05:05:13.219Z,2.80
2023-03-24T05:07:45.008Z,3.10
2023-03-24T05:10:16.241Z,2.80
2023-03-24T05:12:50.414Z,2.87
2023-03-24T05:15:21.010Z,2.97
2023-03-24T05:17:54.792Z,2.60
2023-03-24T05:20:26.393Z,3.43
2023-03-24T05:22:55.805Z,2.73
2023-03-24T05:25:23.677Z,3.20
2023-03-24T05:27:51.949Z,3.17
2023-03-24T05:30:25.462Z,3.10
2023-03-24T05:33:02.490Z,3.43
2023-03-24T05:35:30.693Z,3.40
2023-03-24T05:37:58.502Z,2.93
2023-03-24T05:40:26.763Z,2.83
2023-03-24T05:42:58.522Z,2.83
2023-03-24T05:45:31.536Z,2.70
2023-03-24T05:48:02.456Z,2.70
2023-03-24T05:50:47.438Z,2.73
2023-03-24T05:53:15.400Z,3.17
2023-03-24T05:56:03.074Z,3.20
2023-03-24T05:58:49.350Z,3.13
2023-03-24T06:01:18.306Z,3.00
2023-03-24T06:03:49.193Z,3.30
2023-03-24T06:06:18.607Z,3.10
2023-03-24T06:08:46.575Z,3.10
2023-03-24T06:11:16.358Z,2.87
2023-03-24T06:13:59.088Z,3.10
2023-03-24T06:16:27.829Z,3.10
2023-03-24T06:19:02.094Z,3.50
2023-03-24T06:21:56.001Z,3.50
2023-03-24T06:24:30.247Z,3.13
2023-03-24T06:27:08.793Z,3.47
2023-03-24T06:29:37.377Z,3.10
2023-03-24T06:32:06.384Z,3.43
2023-03-24T06:34:42.439Z,3.57
2023-03-24T06:37:18.047Z,3.57
2023-03-24T06:39:46.684Z,3.43
2023-03-24T06:42:18.528Z,3.23
2023-03-24T06:44:46.756Z,3.77
2023-03-24T06:47:15.125Z,3.70
2023-03-24T06:49:44.337Z,3.43
2023-03-24T06:52:12.240Z,3.43
2023-03-24T06:54:42.250Z,3.13
2023-03-24T06:57:10.885Z,3.30
2023-03-24T06:59:58.153Z,3.97
2023-03-24T07:02:36.237Z,3.30
2023-03-24T07:05:09.037Z,3.70
2023-03-24T07:10:31.806Z,3.70
2023-03-24T07:13:01.435Z,3.57
2023-03-24T07:15:29.276Z,3.63
2023-03-24T07:17:57.624Z,3.73
2023-03-24T07:20:41.492Z,3.73
2023-03-24T07:23:13.302Z,3.40
2023-03-24T07:25:42.141Z,3.13
2023-03-24T07:28:28.670Z,3.13
2023-03-24T07:30:57.090Z,3.60
2023-03-24T07:33:25.194Z,3.60
2023-03-24T07:35:57.436Z,3.43
2023-03-24T07:38:27.549Z,3.40
2023-03-24T07:41:01.111Z,3.77
2023-03-24T07:43:31.856Z,3.40
2023-03-24T07:46:09.599Z,3.40
2023-03-24T07:48:38.628Z,3.33
2023-03-24T07:51:08.014Z,3.63
2023-03-24T07:53:47.792Z,3.20
2023-03-24T07:56:24.257Z,3.93
2023-03-24T07:58:57.074Z,3.60
2023-03-24T08:01:36.703Z,3.37
2023-03-24T08:04:07.405Z,3.13
2023-03-24T08:07:09.034Z,3.40
2023-03-24T08:09:37.036Z,3.30
2023-03-24T08:12:13.787Z,3.27
2023-03-24T08:14:47.636Z,3.67
2023-03-24T08:17:15.473Z,3.30
2023-03-24T08:19:58.194Z,3.30
2023-03-24T08:22:28.590Z,3.53
2023-03-24T08:24:56.531Z,3.50
2023-03-24T08:27:24.229Z,3.20
2023-03-24T08:29:52.155Z,3.40
2023-03-24T08:32:20.145Z,4.03
2023-03-24T08:34:48.981Z,3.40
2023-03-24T08:37:16.545Z,2.90
2023-03-24T08:39:45.638Z,3.37
2023-03-24T08:42:13.263Z,3.57
2023-03-24T08:44:41.830Z,3.10
2023-03-24T08:47:09.662Z,3.50
2023-03-24T08:49:38.196Z,3.43
2023-03-24T08:52:06.348Z,3.30
2023-03-24T08:54:33.930Z,3.10
2023-03-24T08:57:02.847Z,3.33
2023-03-24T08:59:30.531Z,2.10
2023-03-24T09:01:58.154Z,2.30
2023-03-24T09:10:11.661Z,2.40
2023-03-24T09:12:40.216Z,2.53
2023-03-24T09:15:11.729Z,2.33
2023-03-24T09:17:41.351Z,2.03
2023-03-24T09:20:11.822Z,2.30
2023-03-24T09:22:41.099Z,1.43
2023-03-24T09:25:14.192Z,1.63
2023-03-24T09:27:42.117Z,1.90
2023-03-24T09:30:11.592Z,2.23
2023-03-24T09:32:39.489Z,2.27
2023-03-24T09:35:08.604Z,2.67
2023-03-24T09:37:38.470Z,2.30
2023-03-24T09:40:07.880Z,2.20
2023-03-24T09:42:41.249Z,2.73
2023-03-24T09:45:14.376Z,2.63
2023-03-24T09:47:47.307Z,2.23
2023-03-24T09:50:23.022Z,2.23
2023-03-24T09:52:55.320Z,2.30
2023-03-24T09:55:25.954Z,2.20
2023-03-24T09:57:59.443Z,1.90
2023-03-24T10:00:29.571Z,1.90
2023-03-24T10:03:01.761Z,1.93
2023-03-24T10:05:37.214Z,1.90
2023-03-24T10:08:15.727Z,1.90
2023-03-24T10:10:56.283Z,1.60
2023-03-24T10:13:33.761Z,2.00
2023-03-24T10:16:08.408Z,1.70
2023-03-24T10:18:41.502Z,1.80
2023-03-24T10:21:18.333Z,1.50
2023-03-24T10:23:56.743Z,1.63
2023-03-24T10:26:33.852Z,1.67
2023-03-24T10:29:18.434Z,1.40
2023-03-24T10:31:51.968Z,1.47
2023-03-24T10:34:20.409Z,1.57
2023-03-24T10:37:30.076Z,1.93
2023-03-24T10:39:57.797Z,2.27
2023-03-24T10:42:27.680Z,2.03
2023-03-24T10:44:56.007Z,1.70
2023-03-24T10:47:27.931Z,1.63
2023-03-24T10:49:59.340Z,1.87
2023-03-24T10:52:29.517Z,1.60
2023-03-24T10:54:59.744Z,2.00
2023-03-24T10:57:29.092Z,1.90
2023-03-24T10:59:59.741Z,1.40
2023-03-24T11:02:30.643Z,1.57
2023-03-24T11:05:00.152Z,1.70
2023-03-24T11:07:34.792Z,1.57
2023-03-24T11:10:08.274Z,1.80
2023-03-24T11:12:38.855Z,1.70
2023-03-24T11:15:21.780Z,1.70
2023-03-24T11:17:54.919Z,1.50
2023-03-24T11:20:28.630Z,1.60
2023-03-24T11:23:00.711Z,1.40
2023-03-24T11:25:34.165Z,1.93
2023-03-24T11:28:09.647Z,1.70
2023-03-24T11:30:46.803Z,1.47
2023-03-24T11:33:20.883Z,1.67
2023-03-24T11:36:10.608Z,1.43
2023-03-24T11:39:00.256Z,1.70
2023-03-24T11:41:29.247Z,1.37
2023-03-24T11:44:16.889Z,1.50
2023-03-24T11:46:47.505Z,1.30
2023-03-24T11:49:19.349Z,1.37
2023-03-24T11:51:52.910Z,1.37
2023-03-24T11:54:27.366Z,1.30
2023-03-24T11:57:00.812Z,1.20
2023-03-24T11:59:35.329Z,1.17
2023-03-24T12:02:15.038Z,1.27
2023-03-24T12:04:51.947Z,1.43
2023-03-24T12:07:47.757Z,1.10
2023-03-24T12:10:26.332Z,1.03
2023-03-24T12:13:05.345Z,1.30
2023-03-24T12:15:57.293Z,1.40
2023-03-24T12:18:41.618Z,1.13
2023-03-24T12:21:20.867Z,1.10
2023-03-24T12:23:57.344Z,1.40
2023-03-24T12:26:28.476Z,1.33
2023-03-24T12:28:59.804Z,1.40
2023-03-24T12:31:44.509Z,1.20
2023-03-24T12:34:29.034Z,1.10
2023-03-24T12:37:04.805Z,1.33
2023-03-24T12:39:35.972Z,1.50
2023-03-24T12:42:11.354Z,1.40
2023-03-24T12:45:04.021Z,1.70
2023-03-24T12:47:47.678Z,1.40
2023-03-24T12:50:31.233Z,1.60
2023-03-24T12:53:13.585Z,1.57
2023-03-24T12:55:44.735Z,2.10
2023-03-24T12:58:19.615Z,1.80
2023-03-24T13:00:58.888Z,1.80
2023-03-24T13:03:33.064Z,1.87
2023-03-24T13:06:17.243Z,1.60
2023-03-24T13:08:51.695Z,1.70
2023-03-24T13:11:32.882Z,1.97
2023-03-24T13:14:04.246Z,1.93
2023-03-24T13:16:37.458Z,2.00
2023-03-24T13:19:13.911Z,1.50
2023-03-24T13:21:42.542Z,1.70
2023-03-24T13:24:14.813Z,1.77
2023-03-24T13:26:50.166Z,1.53
2023-03-24T13:29:41.967Z,1.37
2023-03-24T13:32:26.682Z,1.50
2023-03-24T13:34:58.833Z,1.70
2023-03-24T13:37:29.832Z,1.30
2023-03-24T13:40:00.945Z,1.63
2023-03-24T13:42:32.708Z,1.10
2023-03-24T13:45:03.737Z,1.50
2023-03-24T13:47:50.736Z,1.73
2023-03-24T13:50:18.912Z,1.70
2023-03-24T13:52:49.982Z,1.93
2023-03-24T13:55:24.409Z,1.97
2023-03-24T13:57:57.895Z,2.10
2023-03-24T14:00:28.136Z,1.80
2023-03-24T14:02:58.263Z,2.30
2023-03-24T14:05:33.315Z,1.87
2023-03-24T14:08:18.274Z,2.03
2023-03-24T14:10:48.301Z,1.70
2023-03-24T14:13:36.667Z,1.83
2023-03-24T14:16:43.989Z,1.90
2023-03-24T14:19:22.119Z,1.87
2023-03-24T14:21:58.073Z,1.70
2023-03-24T14:24:29.393Z,1.87
2023-03-24T14:26:57.726Z,1.47
2023-03-24T14:29:43.212Z,1.80
2023-03-24T14:32:20.682Z,2.23
2023-03-24T14:34:55.900Z,1.90
2023-03-24T14:37:24.810Z,1.80
2023-03-24T14:39:57.402Z,2.00
2023-03-24T14:42:45.296Z,1.70
2023-03-24T14:45:55.679Z,2.00
2023-03-24T14:48:32.442Z,2.00
2023-03-24T14:51:04.587Z,1.80
2023-03-24T14:53:37.538Z,1.77
2023-03-24T14:56:07.946Z,1.97
2023-03-24T14:58:39.221Z,1.90
2023-03-24T15:01:08.297Z,1.70
2023-03-24T15:03:45.954Z,1.93
2023-03-24T15:06:15.858Z,1.37
2023-03-24T15:08:50.575Z,1.83
2023-03-24T15:11:21.639Z,1.30
2023-03-24T15:13:50.856Z,1.83
2023-03-24T15:16:22.046Z,1.87
2023-03-24T15:19:01.361Z,1.97
2023-03-24T15:21:34.234Z,1.80
2023-03-24T15:24:02.877Z,1.70
2023-03-24T15:26:32.563Z,1.53
2023-03-24T15:29:02.552Z,1.70
2023-03-24T15:31:33.782Z,1.47
2023-03-24T15:34:09.431Z,1.77
2023-03-24T15:36:45.675Z,1.83
2023-03-24T15:39:20.918Z,1.57
2023-03-24T15:41:52.307Z,1.37
2023-03-24T15:44:21.552Z,1.23
2023-03-24T15:46:50.151Z,1.20
2023-03-24T15:49:24.500Z,1.47
2023-03-24T15:51:55.252Z,1.50
2023-03-24T15:54:25.703Z,1.80
2023-03-24T15:57:12.042Z,1.60
2023-03-24T15:59:45.727Z,1.50
2023-03-24T16:02:32.189Z,1.73
2023-03-24T16:07:37.678Z,1.70
2023-03-24T16:10:08.731Z,1.47
2023-03-24T16:12:37.725Z,1.30
2023-03-24T16:15:06.936Z,1.60
2023-03-24T16:17:34.687Z,1.50
2023-03-24T16:20:08.834Z,1.50
2023-03-24T16:22:36.613Z,1.43
2023-03-24T16:25:04.917Z,1.97
2023-03-24T16:27:32.549Z,1.60
2023-03-24T16:30:00.950Z,1.90
2023-03-24T16:32:28.649Z,1.63
2023-03-24T16:34:56.555Z,1.80
2023-03-24T16:37:25.514Z,1.43
2023-03-24T16:39:53.175Z,1.53
2023-03-24T16:42:20.881Z,1.90
2023-03-24T16:44:48.565Z,2.03
2023-03-24T16:47:16.202Z,1.70
2023-03-24T16:49:43.896Z,2.03
2023-03-24T16:52:13.003Z,1.60
2023-03-24T16:54:41.977Z,1.40
2023-03-24T16:57:09.622Z,1.40
2023-03-24T16:59:37.371Z,1.50
2023-03-24T17:02:06.048Z,1.40
2023-03-24T17:04:35.370Z,1.30
2023-03-24T17:07:03.134Z,1.30
2023-03-24T17:09:32.218Z,1.20
2023-03-24T17:12:02.303Z,1.20
2023-03-24T17:14:31.235Z,1.03
2023-03-24T17:16:59.671Z,0.80
2023-03-24T17:19:27.367Z,1.40
2023-03-24T17:22:00.646Z,1.03
2023-03-24T17:24:28.728Z,1.60
2023-03-24T17:26:56.597Z,1.23
2023-03-24T17:29:25.545Z,1.73
2023-03-24T17:31:54.450Z,1.30
2023-03-24T17:34:22.538Z,1.30
2023-03-24T17:36:51.135Z,1.20
2023-03-24T17:39:21.049Z,1.13
2023-03-24T17:41:48.687Z,1.00
2023-03-24T17:44:16.496Z,0.90
2023-03-24T17:46:45.891Z,1.00
2023-03-24T17:49:13.550Z,0.93
2023-03-24T17:51:41.172Z,1.00
2023-03-24T17:54:10.349Z,1.20
2023-03-24T17:56:38.013Z,1.40
2023-03-24T17:59:05.942Z,1.20
2023-03-24T18:01:35.307Z,0.90
2023-03-24T18:04:04.657Z,1.20
2023-03-24T18:06:32.287Z,1.57
2023-03-24T18:09:00.083Z,1.47
2023-03-24T18:11:27.710Z,1.80
2023-03-24T18:13:55.483Z,1.50
2023-03-24T18:16:25.183Z,1.20
2023-03-24T18:18:53.112Z,1.47
2023-03-24T18:21:22.605Z,1.30
2023-03-24T18:23:50.292Z,1.33
2023-03-24T18:26:18.976Z,1.37
2023-03-24T18:28:46.927Z,1.63
2023-03-24T18:31:18.711Z,1.40
2023-03-24T18:33:46.818Z,1.40
2023-03-24T18:36:16.309Z,1.23
2023-03-24T18:38:46.665Z,1.30
2023-03-24T18:41:16.785Z,1.13
2023-03-24T18:43:47.549Z,1.60
2023-03-24T18:46:16.123Z,1.60
2023-03-24T18:48:44.271Z,1.60
2023-03-24T18:51:13.084Z,1.53
2023-03-24T18:53:41.368Z,1.23
2023-03-24T18:56:11.509Z,1.37
2023-03-24T18:58:39.353Z,1.17
2023-03-24T19:01:10.175Z,1.20
2023-03-24T19:03:39.354Z,1.80
2023-03-24T19:06:08.313Z,1.50
2023-03-24T19:08:38.200Z,1.40
2023-03-24T19:11:06.695Z,1.80
2023-03-24T19:13:36.142Z,1.70
2023-03-24T19:16:04.092Z,1.43
2023-03-24T19:18:31.973Z,1.50
2023-03-24T19:21:02.043Z,1.20
2023-03-24T19:23:30.752Z,1.63
2023-03-24T19:25:58.448Z,2.00
2023-03-24T19:28:29.232Z,1.90
2023-03-24T19:30:59.466Z,1.70
2023-03-24T19:33:27.485Z,1.70
2023-03-24T19:35:55.338Z,2.07
2023-03-24T19:38:24.164Z,1.50
2023-03-24T19:40:52.762Z,1.30
2023-03-24T19:43:24.324Z,1.30
2023-03-24T19:45:56.362Z,0.90
2023-03-24T19:48:25.431Z,1.10
2023-03-24T19:50:55.068Z,0.97
2023-03-24T19:53:23.778Z,1.00
2023-03-24T19:55:51.923Z,0.60
2023-03-24T19:58:19.922Z,1.00
2023-03-24T20:00:47.558Z,1.03
2023-03-24T20:03:15.534Z,0.90
2023-03-24T20:05:44.579Z,0.80
2023-03-24T20:08:12.200Z,0.70
2023-03-24T20:10:40.794Z,0.93
2023-03-24T20:13:09.108Z,0.87
2023-03-24T20:15:36.815Z,0.60
2023-03-24T20:18:05.229Z,0.60
2023-03-24T20:20:32.994Z,0.67
2023-03-24T20:23:02.030Z,0.63
2023-03-24T20:25:29.802Z,0.80
2023-03-24T20:27:57.408Z,0.80
2023-03-24T20:30:28.137Z,0.80
2023-03-24T20:32:57.613Z,0.73
2023-03-24T20:35:25.684Z,0.70
2023-03-24T20:37:53.380Z,0.73
2023-03-24T20:40:24.602Z,0.80
2023-03-24T20:42:52.465Z,0.87
2023-03-24T20:45:20.671Z,1.37
2023-03-24T20:47:48.457Z,3.07
2023-03-24T20:50:16.364Z,3.67
2023-03-24T20:52:44.067Z,3.87
2023-03-24T20:55:12.433Z,3.73
2023-03-24T20:57:41.471Z,3.50
2023-03-24T21:00:13.446Z,2.43
2023-03-24T21:02:42.225Z,2.07
2023-03-24T21:05:10.796Z,2.10
2023-03-24T21:07:42.378Z,1.50
2023-03-24T21:10:10.982Z,1.70
2023-03-24T21:12:53.433Z,1.57
2023-03-24T21:15:25.025Z,1.57
2023-03-24T21:17:53.248Z,1.20
2023-03-24T21:20:21.218Z,1.23
2023-03-24T21:22:54.959Z,1.60
2023-03-24T21:25:24.018Z,1.33
2023-03-24T21:27:52.111Z,1.23
2023-03-24T21:30:20.236Z,1.10
2023-03-24T21:32:51.042Z,1.10
2023-03-24T21:35:20.076Z,1.20
2023-03-24T21:37:48.637Z,0.87
2023-03-24T21:40:18.749Z,1.60
2023-03-24T21:42:49.577Z,1.23
2023-03-24T21:45:18.903Z,1.40
2023-03-24T21:47:47.939Z,2.13
2023-03-24T21:50:23.146Z,2.23
2023-03-24T21:52:52.051Z,2.23
2023-03-24T21:55:21.498Z,2.40
2023-03-24T21:57:51.875Z,1.93
2023-03-24T22:00:23.241Z,1.93
2023-03-24T22:02:52.768Z,1.80
2023-03-24T22:05:23.990Z,1.83
2023-03-24T22:07:52.798Z,1.90
2023-03-24T22:10:22.785Z,1.53
2023-03-24T22:12:51.155Z,1.67
2023-03-24T22:15:19.368Z,1.57
2023-03-24T22:17:47.147Z,1.53
2023-03-24T22:20:16.775Z,1.67
2023-03-24T22:22:45.948Z,2.37
2023-03-24T22:25:16.213Z,2.27
2023-03-24T22:27:43.943Z,2.30
2023-03-24T22:30:14.218Z,2.30
2023-03-24T22:32:42.590Z,1.80
2023-03-24T22:35:11.028Z,1.90
2023-03-24T22:37:38.786Z,1.47
2023-03-24T22:40:11.004Z,1.40
2023-03-24T22:42:38.625Z,1.53
2023-03-24T22:45:07.431Z,1.60
2023-03-24T22:47:36.223Z,1.60
2023-03-24T22:50:04.180Z,1.33
2023-03-24T22:52:32.480Z,1.50
2023-03-24T22:55:00.235Z,1.37
2023-03-24T22:57:29.917Z,1.57
2023-03-24T23:00:01.672Z,1.10
2023-03-24T23:02:29.694Z,1.50
2023-03-24T23:04:57.641Z,1.10
2023-03-24T23:07:28.295Z,1.30
2023-03-24T23:09:59.412Z,1.30
2023-03-24T23:12:29.247Z,1.00
2023-03-24T23:14:56.937Z,1.13
2023-03-24T23:17:25.191Z,1.20
2023-03-24T23:19:53.304Z,0.83
2023-03-24T23:22:21.744Z,0.83
2023-03-24T23:24:53.673Z,0.97
2023-03-24T23:27:34.244Z,1.20
2023-03-24T23:30:01.949Z,1.53
2023-03-24T23:32:32.509Z,1.10
2023-03-24T23:35:02.676Z,1.20
2023-03-24T23:37:32.079Z,1.00
2023-03-24T23:40:02.304Z,1.10
2023-03-24T23:42:33.402Z,1.10
2023-03-24T23:45:01.307Z,1.10
2023-03-24T23:47:32.561Z,1.20
2023-03-24T23:50:02.657Z,1.00
2023-03-24T23:52:30.322Z,1.60
2023-03-24T23:54:58.481Z,1.40
2023-03-24T23:57:26.162Z,1.00
2023-03-24T23:59:55.207Z,1.13
